Terminal Aerodrome Forecast
Issued by NWS

Home | Current Version | Previous Version | Text Only | Print | Product List | Glossary On
Versions: 1 2 3 4 5 6 7 8 9 10 11 12 13 14 15 16 17
509
FTUS45 KRIW 050541
TAFCPR
TAF
KCPR 050541Z 0506/0606 22017G25KT P6SM SCT090 WS016/25050KT
     FM051000 24014G20KT P6SM BKN070
     FM051200 32014G20KT P6SM VCSH SCT015 OVC035
     FM051400 34010KT 3SM -SN BKN015
     FM051800 29014G20KT P6SM SCT020 BKN035
     FM060300 26008KT P6SM SCT040=

USA.gov is the U.S. government's official web portal to all federal, state and local government web resources and services.